createdAt,value
2023-01-10T00:00:25.500Z,44.85
2023-01-10T00:02:53.896Z,8.25
2023-01-10T00:05:22.157Z,54.85
2023-01-10T00:07:50.243Z,38.72
2023-01-10T00:10:20.950Z,18.50
2023-01-10T00:13:09.540Z,10.43
2023-01-10T00:15:38.081Z,3.42
2023-01-10T00:18:05.975Z,35.53
2023-01-10T00:20:34.434Z,48.90
2023-01-10T00:23:04.866Z,32.70
2023-01-10T00:25:34.548Z,14.88
2023-01-10T00:28:20.612Z,30.67
2023-01-10T00:30:57.413Z,11.27
2023-01-10T00:33:45.251Z,44.22
2023-01-10T00:36:13.209Z,2.15
2023-01-10T00:38:41.289Z,40.83
2023-01-10T00:41:30.070Z,13.05
2023-01-10T00:43:58.765Z,13.23
2023-01-10T00:46:30.921Z,13.05
2023-01-10T00:48:58.864Z,17.88
2023-01-10T00:51:26.955Z,40.85
2023-01-10T00:53:54.927Z,31.65
2023-01-10T00:56:23.022Z,8.52
2023-01-10T00:58:53.131Z,29.67
2023-01-10T01:01:22.328Z,16.08
2023-01-10T01:03:50.320Z,20.45
2023-01-10T01:06:24.428Z,39.60
2023-01-10T01:08:54.299Z,10.73
2023-01-10T01:11:23.080Z,7.88
2023-01-10T01:13:51.924Z,39.05
2023-01-10T01:16:23.267Z,8.65
2023-01-10T01:18:51.191Z,3.78
2023-01-10T01:21:21.529Z,3.30
2023-01-10T01:26:19.775Z,13.98
2023-01-10T01:28:50.239Z,21.20
2023-01-10T01:31:19.498Z,26.48
2023-01-10T01:33:48.679Z,8.45
2023-01-10T01:36:16.616Z,9.82
2023-01-10T01:38:44.778Z,38.30
2023-01-10T01:41:31.179Z,58.50
2023-01-10T01:44:11.912Z,64.03
2023-01-10T01:46:40.831Z,70.07
2023-01-10T01:49:17.222Z,12.68
2023-01-10T01:51:46.431Z,13.90
2023-01-10T01:54:16.064Z,14.80
2023-01-10T01:56:48.539Z,38.08
2023-01-10T01:59:22.443Z,9.32
2023-01-10T02:01:53.615Z,20.83
2023-01-10T02:04:23.556Z,9.40
2023-01-10T02:06:52.364Z,52.53
2023-01-10T02:09:25.379Z,11.38
2023-01-10T02:11:53.385Z,33.83
2023-01-10T02:14:21.967Z,66.38
2023-01-10T02:16:50.512Z,13.75
2023-01-10T02:19:43.576Z,10.60
2023-01-10T02:22:21.223Z,13.63
2023-01-10T02:25:07.504Z,36.90
2023-01-10T02:27:42.569Z,46.10
2023-01-10T02:30:48.520Z,31.98
2023-01-10T02:33:28.436Z,49.03
2023-01-10T02:36:02.413Z,6.22
2023-01-10T02:38:30.326Z,24.85
2023-01-10T02:41:15.746Z,11.85
2023-01-10T02:43:58.897Z,55.92
2023-01-10T02:46:31.100Z,10.02
2023-01-10T02:48:59.528Z,35.55
2023-01-10T02:51:29.935Z,5.07
2023-01-10T02:54:01.967Z,13.20
2023-01-10T02:57:09.813Z,26.52
2023-01-10T02:59:37.716Z,6.95
2023-01-10T03:02:08.651Z,9.18
2023-01-10T03:04:58.875Z,22.00
2023-01-10T03:07:42.017Z,61.85
2023-01-10T03:10:26.528Z,19.52
2023-01-10T03:13:02.314Z,31.08
2023-01-10T03:15:34.053Z,9.70
2023-01-10T03:18:03.860Z,6.47
2023-01-10T03:20:34.237Z,6.30
2023-01-10T03:23:03.415Z,43.53
2023-01-10T03:25:34.498Z,13.52
2023-01-10T03:28:07.723Z,6.70
2023-01-10T03:30:47.385Z,13.13
2023-01-10T03:33:17.250Z,10.68
2023-01-10T03:36:05.781Z,26.00
2023-01-10T03:39:16.718Z,35.28
2023-01-10T03:41:47.666Z,58.65
2023-01-10T03:44:37.634Z,7.07
2023-01-10T03:47:07.212Z,12.75
2023-01-10T03:49:39.647Z,7.97
2023-01-10T03:52:08.746Z,14.70
2023-01-10T03:54:36.819Z,48.28
2023-01-10T03:57:04.938Z,28.40
2023-01-10T03:59:35.529Z,17.50
2023-01-10T04:02:03.744Z,45.17
2023-01-10T04:04:32.751Z,8.05
2023-01-10T04:07:00.900Z,31.60
2023-01-10T04:09:28.916Z,2.60
2023-01-10T04:11:57.081Z,41.65
2023-01-10T04:14:27.199Z,34.90
2023-01-10T04:16:58.208Z,11.68
2023-01-10T04:19:26.321Z,7.22
2023-01-10T04:21:57.286Z,18.88
2023-01-10T04:24:25.316Z,39.35
2023-01-10T04:26:53.270Z,9.88
2023-01-10T04:29:21.500Z,7.13
2023-01-10T04:31:51.515Z,20.67
2023-01-10T04:34:20.738Z,47.53
2023-01-10T04:36:50.725Z,6.10
2023-01-10T04:39:18.829Z,48.97
2023-01-10T04:41:46.705Z,25.25
2023-01-10T04:44:15.645Z,20.50
2023-01-10T04:46:43.693Z,42.72
2023-01-10T04:49:12.142Z,12.20
2023-01-10T04:51:40.258Z,10.75
2023-01-10T04:54:08.384Z,11.80
2023-01-10T04:56:36.417Z,33.28
2023-01-10T04:59:06.698Z,5.30
2023-01-10T05:04:06.742Z,19.80
2023-01-10T05:06:36.235Z,19.25
2023-01-10T05:09:05.822Z,11.23
2023-01-10T05:11:35.767Z,23.08
2023-01-10T05:14:03.950Z,3.38
2023-01-10T05:16:35.301Z,16.10
2023-01-10T05:19:03.443Z,44.47
2023-01-10T05:21:32.804Z,17.95
2023-01-10T05:24:00.786Z,34.85
2023-01-10T05:26:29.609Z,28.08
2023-01-10T05:28:57.568Z,13.98
2023-01-10T05:31:28.833Z,23.50
2023-01-10T05:33:56.856Z,28.65
2023-01-10T05:36:24.866Z,32.53
2023-01-10T05:38:53.716Z,20.35
2023-01-10T05:41:21.711Z,11.82
2023-01-10T05:43:49.749Z,9.48
2023-01-10T05:46:17.723Z,36.35
2023-01-10T05:48:46.811Z,65.22
2023-01-10T05:51:15.727Z,179.85
2023-01-10T05:53:44.933Z,37.15
2023-01-10T05:56:13.665Z,50.88
2023-01-10T05:58:41.712Z,103.28
2023-01-10T06:01:10.241Z,57.65
2023-01-10T06:03:38.509Z,44.50
2023-01-10T06:06:06.544Z,52.42
2023-01-10T06:08:34.656Z,27.90
2023-01-10T06:11:04.461Z,68.53
2023-01-10T06:13:35.168Z,43.92
2023-01-10T06:16:08.661Z,38.10
2023-01-10T06:18:46.232Z,25.15
2023-01-10T06:21:15.823Z,65.28
2023-01-10T06:23:47.124Z,86.97
2023-01-10T06:26:19.188Z,84.30
2023-01-10T06:28:48.253Z,29.63
2023-01-10T06:31:17.967Z,36.65
2023-01-10T06:33:48.864Z,56.97
2023-01-10T06:36:17.400Z,60.88
2023-01-10T06:38:48.830Z,57.03
2023-01-10T06:41:17.262Z,98.13
2023-01-10T06:43:47.663Z,41.13
2023-01-10T06:46:18.015Z,36.13
2023-01-10T06:48:47.539Z,64.90
2023-01-10T06:51:20.292Z,55.42
2023-01-10T06:53:48.879Z,29.67
2023-01-10T06:56:19.276Z,47.65
2023-01-10T06:58:50.463Z,26.08
2023-01-10T07:01:20.305Z,43.53
2023-01-10T07:03:52.240Z,45.60
2023-01-10T07:06:23.337Z,23.50
2023-01-10T07:08:56.380Z,42.70
2023-01-10T07:11:25.293Z,28.60
2023-01-10T07:13:58.466Z,40.45
2023-01-10T07:16:27.328Z,25.27
2023-01-10T07:18:55.433Z,54.40
2023-01-10T07:21:23.917Z,35.53
2023-01-10T07:23:52.001Z,29.63
2023-01-10T07:26:20.215Z,22.05
2023-01-10T07:28:51.803Z,56.33
2023-01-10T07:31:23.215Z,44.30
2023-01-10T07:34:01.816Z,50.05
2023-01-10T07:36:39.187Z,69.97
2023-01-10T07:39:07.538Z,28.42
2023-01-10T07:41:35.443Z,41.72
2023-01-10T07:44:05.590Z,44.92
2023-01-10T07:46:33.576Z,44.83
2023-01-10T07:49:01.607Z,38.05
2023-01-10T07:51:29.219Z,42.72
2023-01-10T07:53:57.879Z,55.03
2023-01-10T07:56:25.795Z,29.98
2023-01-10T07:58:53.511Z,67.50
2023-01-10T08:01:21.843Z,52.58
2023-01-10T08:03:49.542Z,65.40
2023-01-10T08:06:17.525Z,50.25
2023-01-10T08:08:45.541Z,58.53
2023-01-10T08:11:13.701Z,40.20
2023-01-10T08:13:42.246Z,30.98
2023-01-10T08:16:10.378Z,30.30
2023-01-10T08:18:42.451Z,44.63
2023-01-10T08:21:10.739Z,43.80
2023-01-10T08:23:38.789Z,34.22
2023-01-10T08:26:06.808Z,92.03
2023-01-10T08:28:35.080Z,81.80
2023-01-10T08:31:10.177Z,39.58
2023-01-10T08:33:42.684Z,100.53
2023-01-10T08:36:19.242Z,83.85
2023-01-10T08:38:48.009Z,105.13
2023-01-10T08:41:15.810Z,45.25
2023-01-10T08:43:43.666Z,46.50
2023-01-10T08:46:11.656Z,53.72
2023-01-10T08:48:39.554Z,48.72
2023-01-10T08:51:10.743Z,63.38
2023-01-10T08:53:40.357Z,58.03
2023-01-10T08:56:08.272Z,40.47
2023-01-10T08:58:36.506Z,35.42
2023-01-10T09:01:12.070Z,45.28
2023-01-10T09:03:43.600Z,48.17
2023-01-10T09:06:12.420Z,62.63
2023-01-10T09:08:40.093Z,66.35
2023-01-10T09:11:09.049Z,87.30
2023-01-10T09:13:36.948Z,64.97
2023-01-10T09:16:05.554Z,77.10
2023-01-10T09:18:34.303Z,49.38
2023-01-10T09:21:03.334Z,77.72
2023-01-10T09:23:31.835Z,29.05
2023-01-10T09:26:04.593Z,46.50
2023-01-10T09:28:32.684Z,86.30
2023-01-10T09:31:01.406Z,38.58
2023-01-10T09:33:41.477Z,43.17
2023-01-10T09:36:15.586Z,28.88
2023-01-10T09:38:44.164Z,54.03
2023-01-10T09:41:50.390Z,30.67
2023-01-10T09:44:47.256Z,38.17
2023-01-10T09:47:25.871Z,26.52
2023-01-10T09:50:15.856Z,16.92
2023-01-10T09:52:46.112Z,48.90
2023-01-10T09:57:50.924Z,48.85
2023-01-10T10:00:25.327Z,61.33
2023-01-10T10:02:53.768Z,88.78
2023-01-10T10:05:26.930Z,55.63
2023-01-10T10:08:05.391Z,59.60
2023-01-10T10:10:46.415Z,39.95
2023-01-10T10:13:26.976Z,53.03
2023-01-10T10:16:17.277Z,43.53
2023-01-10T10:19:13.882Z,82.07
2023-01-10T10:21:51.768Z,80.93
2023-01-10T10:24:29.671Z,73.90
2023-01-10T10:27:25.033Z,46.05
2023-01-10T10:30:05.117Z,53.17
2023-01-10T10:32:56.320Z,52.85
2023-01-10T10:35:27.307Z,49.78
2023-01-10T10:37:59.152Z,64.00
2023-01-10T10:40:36.570Z,30.30
2023-01-10T10:43:12.784Z,48.97
2023-01-10T10:45:45.736Z,43.40
2023-01-10T10:48:16.722Z,46.38
2023-01-10T10:50:59.751Z,46.22
2023-01-10T10:53:34.490Z,103.25
2023-01-10T10:56:09.610Z,57.08
2023-01-10T10:58:38.730Z,52.53
2023-01-10T11:01:06.702Z,79.20
2023-01-10T11:03:37.560Z,35.55
2023-01-10T11:06:07.725Z,49.30
2023-01-10T11:08:42.282Z,41.28
2023-01-10T11:11:26.280Z,41.08
2023-01-10T11:14:03.279Z,54.33
2023-01-10T11:16:41.945Z,48.00
2023-01-10T11:19:20.192Z,59.58
2023-01-10T11:21:53.195Z,45.72
2023-01-10T11:24:34.260Z,71.80
2023-01-10T11:27:05.565Z,48.65
2023-01-10T11:29:40.424Z,36.40
2023-01-10T11:32:16.107Z,40.40
2023-01-10T11:35:01.059Z,28.02
2023-01-10T11:37:36.596Z,38.33
2023-01-10T11:40:28.734Z,27.17
2023-01-10T11:42:59.398Z,38.10
2023-01-10T11:45:31.822Z,35.75
2023-01-10T11:48:22.948Z,51.30
2023-01-10T11:50:57.533Z,28.25
2023-01-10T11:53:42.972Z,42.33
2023-01-10T11:56:24.842Z,17.83
2023-01-10T11:58:52.920Z,33.08
2023-01-10T12:01:56.307Z,40.38
2023-01-10T12:04:26.372Z,32.90
2023-01-10T12:06:59.071Z,27.10
2023-01-10T12:09:42.450Z,32.53
2023-01-10T12:12:25.900Z,63.42
2023-01-10T12:14:58.391Z,27.42
2023-01-10T12:17:36.039Z,29.83
2023-01-10T12:20:06.742Z,36.28
2023-01-10T12:22:39.676Z,37.50
2023-01-10T12:25:18.434Z,47.00
2023-01-10T12:27:50.307Z,41.85
2023-01-10T12:30:43.821Z,30.45
2023-01-10T12:33:41.490Z,32.28
2023-01-10T12:36:18.135Z,44.67
2023-01-10T12:39:08.960Z,45.40
2023-01-10T12:42:02.218Z,35.10
2023-01-10T12:44:50.504Z,30.90
2023-01-10T12:47:35.708Z,43.85
2023-01-10T12:50:14.955Z,22.50
2023-01-10T12:53:01.487Z,47.58
2023-01-10T12:55:34.644Z,47.70
2023-01-10T12:58:05.160Z,38.90
2023-01-10T13:00:55.455Z,61.97
2023-01-10T13:03:30.464Z,34.92
2023-01-10T13:06:04.784Z,38.65
2023-01-10T13:08:37.293Z,45.25
2023-01-10T13:11:12.755Z,44.15
2023-01-10T13:13:48.973Z,63.55
2023-01-10T13:16:56.280Z,35.97
2023-01-10T13:19:26.813Z,24.08
2023-01-10T13:22:22.455Z,42.83
2023-01-10T13:25:03.798Z,29.67
2023-01-10T13:27:35.053Z,44.55
2023-01-10T13:30:05.163Z,33.70
2023-01-10T13:32:42.864Z,26.08
2023-01-10T13:35:20.791Z,30.98
2023-01-10T13:37:56.835Z,42.17
2023-01-10T13:40:28.362Z,63.42
2023-01-10T13:43:37.085Z,54.83
2023-01-10T13:46:20.343Z,32.67
2023-01-10T13:48:51.523Z,61.92
2023-01-10T13:51:20.508Z,48.17
2023-01-10T13:53:53.530Z,45.75
2023-01-10T13:56:45.474Z,36.10
2023-01-10T13:59:46.497Z,33.72
2023-01-10T14:02:30.190Z,46.00
2023-01-10T14:05:01.962Z,50.20
2023-01-10T14:07:51.907Z,46.72
2023-01-10T14:10:30.526Z,58.17
2023-01-10T14:13:09.341Z,47.17
2023-01-10T14:15:47.615Z,63.97
2023-01-10T14:18:46.250Z,40.83
2023-01-10T14:21:24.736Z,37.45
2023-01-10T14:23:54.410Z,29.67
2023-01-10T14:26:36.977Z,37.08
2023-01-10T14:31:39.483Z,44.60
2023-01-10T14:34:14.894Z,28.77
2023-01-10T14:36:56.616Z,53.33
2023-01-10T14:39:24.477Z,54.25
2023-01-10T14:41:55.235Z,59.42
2023-01-10T14:44:24.718Z,53.22
2023-01-10T14:46:55.356Z,76.30
2023-01-10T14:49:37.812Z,41.05
2023-01-10T14:52:25.907Z,47.70
2023-01-10T14:55:09.604Z,55.83
2023-01-10T14:57:38.242Z,30.10
2023-01-10T15:00:17.380Z,90.00
2023-01-10T15:02:49.992Z,43.63
2023-01-10T15:05:26.137Z,53.90
2023-01-10T15:08:18.164Z,28.70
2023-01-10T15:10:47.651Z,41.35
2023-01-10T15:13:19.999Z,19.80
2023-01-10T15:15:50.447Z,59.45
2023-01-10T15:18:44.583Z,41.53
2023-01-10T15:21:14.885Z,39.88
2023-01-10T15:23:46.269Z,25.33
2023-01-10T15:26:29.469Z,23.95
2023-01-10T15:29:21.183Z,37.08
2023-01-10T15:31:50.550Z,27.55
2023-01-10T15:34:24.091Z,30.88
2023-01-10T15:36:58.135Z,38.13
2023-01-10T15:39:34.932Z,30.83
2023-01-10T15:42:09.826Z,21.85
2023-01-10T15:44:45.364Z,21.98
2023-01-10T15:47:38.110Z,13.55
2023-01-10T15:50:18.412Z,17.25
2023-01-10T15:52:58.356Z,17.83
2023-01-10T15:55:49.843Z,38.33
2023-01-10T15:58:36.346Z,39.88
2023-01-10T16:01:04.976Z,36.70
2023-01-10T16:03:39.932Z,33.45
2023-01-10T16:06:18.264Z,25.75
2023-01-10T16:08:49.685Z,19.30
2023-01-10T16:11:48.079Z,24.00
2023-01-10T16:14:21.935Z,16.02
2023-01-10T16:16:52.008Z,29.40
2023-01-10T16:19:24.883Z,42.85
2023-01-10T16:22:00.182Z,13.95
2023-01-10T16:24:36.199Z,18.33
2023-01-10T16:27:06.521Z,30.90
2023-01-10T16:29:35.381Z,18.90
2023-01-10T16:32:07.335Z,45.67
2023-01-10T16:34:38.944Z,22.60
2023-01-10T16:37:09.389Z,19.77
2023-01-10T16:39:37.465Z,19.17
2023-01-10T16:42:24.402Z,23.70
2023-01-10T16:44:54.207Z,36.78
2023-01-10T16:47:21.939Z,10.43
2023-01-10T16:49:51.413Z,30.10
2023-01-10T16:52:22.130Z,12.07
2023-01-10T16:54:56.749Z,14.02
2023-01-10T16:57:26.935Z,9.77
2023-01-10T17:00:01.439Z,15.18
2023-01-10T17:02:32.723Z,4.43
2023-01-10T17:05:01.199Z,7.47
2023-01-10T17:07:30.584Z,7.30
2023-01-10T17:09:59.597Z,8.48
2023-01-10T17:12:35.486Z,12.02
2023-01-10T17:15:13.823Z,6.32
2023-01-10T17:17:50.111Z,13.38
2023-01-10T17:23:00.759Z,10.93
2023-01-10T17:25:33.132Z,7.88
2023-01-10T17:28:05.888Z,8.80
2023-01-10T17:30:40.607Z,7.88
2023-01-10T17:33:13.169Z,6.82
2023-01-10T17:35:44.202Z,6.70
2023-01-10T17:38:16.978Z,4.72
2023-01-10T17:40:47.141Z,13.25
2023-01-10T17:45:46.960Z,10.63
2023-01-10T17:48:16.958Z,7.13
2023-01-10T17:50:52.648Z,7.40
2023-01-10T17:53:23.430Z,7.32
2023-01-10T17:55:54.868Z,4.85
2023-01-10T17:58:25.411Z,5.93
2023-01-10T18:00:55.544Z,3.67
2023-01-10T18:06:09.953Z,9.77
2023-01-10T18:08:51.637Z,6.53
2023-01-10T18:11:25.727Z,8.38
2023-01-10T18:13:56.005Z,5.57
2023-01-10T18:16:27.387Z,12.13
2023-01-10T18:18:59.351Z,4.95
2023-01-10T18:21:28.432Z,7.57
2023-01-10T18:24:02.223Z,5.50
2023-01-10T18:26:35.538Z,3.83
2023-01-10T18:29:10.342Z,7.50
2023-01-10T18:31:47.934Z,12.48
2023-01-10T18:34:22.081Z,13.45
2023-01-10T18:36:58.211Z,7.88
2023-01-10T18:39:30.855Z,17.70
2023-01-10T18:42:05.095Z,8.63
2023-01-10T18:44:37.730Z,6.38
2023-01-10T18:47:06.319Z,3.80
2023-01-10T18:49:39.087Z,6.25
2023-01-10T18:52:17.370Z,2.95
2023-01-10T18:54:52.712Z,9.50
2023-01-10T18:57:20.335Z,7.65
2023-01-10T18:59:50.792Z,13.43
2023-01-10T19:02:18.751Z,11.93
2023-01-10T19:04:46.461Z,11.60
2023-01-10T19:07:14.168Z,16.38
2023-01-10T19:09:41.917Z,9.55
2023-01-10T19:12:09.619Z,8.40
2023-01-10T19:14:37.298Z,7.75
2023-01-10T19:17:06.999Z,5.00
2023-01-10T19:19:34.821Z,5.82
2023-01-10T19:22:02.375Z,4.72
2023-01-10T19:24:35.763Z,5.82
2023-01-10T19:27:03.998Z,2.42
2023-01-10T19:29:31.714Z,7.80
2023-01-10T19:32:00.752Z,8.02
2023-01-10T19:34:28.901Z,4.60
2023-01-10T19:36:58.945Z,7.72
2023-01-10T19:39:26.627Z,5.75
2023-01-10T19:41:54.306Z,10.27
2023-01-10T19:44:22.027Z,5.55
2023-01-10T19:46:50.389Z,7.03
2023-01-10T19:49:20.419Z,6.63
2023-01-10T19:51:51.218Z,7.72
2023-01-10T19:54:18.946Z,5.72
2023-01-10T19:56:46.568Z,7.85
2023-01-10T19:59:14.866Z,4.28
2023-01-10T20:01:42.499Z,5.57
2023-01-10T20:04:10.280Z,3.33
2023-01-10T20:06:42.001Z,6.15
2023-01-10T20:09:13.554Z,6.00
2023-01-10T20:11:43.030Z,10.15
2023-01-10T20:14:14.714Z,7.97
2023-01-10T20:16:42.965Z,10.85
2023-01-10T20:19:12.265Z,3.67
2023-01-10T20:21:41.184Z,6.85
2023-01-10T20:24:14.820Z,5.13
2023-01-10T20:26:42.533Z,8.15
2023-01-10T20:29:10.172Z,4.93
2023-01-10T20:31:38.807Z,6.80
2023-01-10T20:34:06.747Z,5.38
2023-01-10T20:36:34.451Z,6.25
2023-01-10T20:39:02.061Z,6.15
2023-01-10T20:41:31.132Z,5.63
2023-01-10T20:43:58.802Z,5.65
2023-01-10T20:46:31.885Z,4.50
2023-01-10T20:49:02.349Z,4.38
2023-01-10T20:51:33.285Z,6.53
2023-01-10T20:54:01.113Z,7.07
2023-01-10T20:56:30.336Z,7.70
2023-01-10T20:58:58.726Z,5.45
2023-01-10T21:01:34.453Z,7.35
2023-01-10T21:04:05.698Z,4.78
2023-01-10T21:06:34.047Z,3.85
2023-01-10T21:09:01.952Z,4.82
2023-01-10T21:11:29.806Z,8.27
2023-01-10T21:13:57.350Z,6.20
2023-01-10T21:16:25.707Z,5.18
2023-01-10T21:18:53.556Z,8.10
2023-01-10T21:21:24.621Z,7.30
2023-01-10T21:23:54.966Z,3.83
2023-01-10T21:26:22.654Z,9.75
2023-01-10T21:28:50.371Z,6.32
2023-01-10T21:31:20.927Z,7.47
2023-01-10T21:33:49.593Z,4.22
2023-01-10T21:38:49.314Z,2.80
2023-01-10T21:41:38.844Z,7.43
2023-01-10T21:44:06.726Z,3.88
2023-01-10T21:46:34.406Z,4.95
2023-01-10T21:49:02.750Z,5.50
2023-01-10T21:51:30.360Z,8.07
2023-01-10T21:53:58.034Z,9.95
2023-01-10T21:56:28.116Z,5.90
2023-01-10T21:58:56.064Z,7.75
2023-01-10T22:01:23.803Z,5.75
2023-01-10T22:03:51.386Z,4.30
2023-01-10T22:06:19.085Z,6.35
2023-01-10T22:08:46.978Z,5.30
2023-01-10T22:11:14.605Z,5.05
2023-01-10T22:13:44.144Z,6.20
2023-01-10T22:16:11.922Z,3.75
2023-01-10T22:18:39.631Z,6.32
2023-01-10T22:21:09.923Z,6.03
2023-01-10T22:26:12.323Z,7.50
2023-01-10T22:28:40.283Z,3.60
2023-01-10T22:31:08.737Z,6.93
2023-01-10T22:33:38.311Z,4.95
2023-01-10T22:36:06.185Z,2.85
2023-01-10T22:38:34.304Z,5.63
2023-01-10T22:41:12.809Z,6.95
2023-01-10T22:43:40.449Z,5.40
2023-01-10T22:46:08.520Z,5.20
2023-01-10T22:48:36.465Z,5.13
2023-01-10T22:51:06.575Z,8.68
2023-01-10T22:53:34.734Z,5.20
2023-01-10T22:56:04.136Z,6.53
2023-01-10T22:58:32.038Z,6.93
2023-01-10T23:00:59.893Z,8.25
2023-01-10T23:03:30.027Z,4.53
2023-01-10T23:05:58.445Z,5.97
2023-01-10T23:09:21.708Z,4.85
2023-01-10T23:11:49.544Z,6.18
2023-01-10T23:14:17.059Z,6.22
2023-01-10T23:16:44.896Z,7.80
2023-01-10T23:19:15.117Z,3.22
2023-01-10T23:21:44.699Z,7.43
2023-01-10T23:24:15.026Z,4.15
2023-01-10T23:26:42.642Z,7.65
2023-01-10T23:29:10.309Z,4.10
2023-01-10T23:31:38.319Z,5.60
2023-01-10T23:34:07.736Z,4.15
2023-01-10T23:36:35.390Z,5.88
2023-01-10T23:39:03.105Z,2.92
2023-01-10T23:41:30.709Z,3.33
2023-01-10T23:43:58.425Z,2.70
2023-01-10T23:46:26.184Z,6.05
2023-01-10T23:48:53.852Z,6.82
2023-01-10T23:51:21.620Z,6.75
2023-01-10T23:53:49.300Z,4.47
2023-01-10T23:56:19.590Z,2.17
